Armstrong, Alabama
Current Conditions -  °F | °C
As of 1:35 AM on Saturday 01 Nov 2014 (Local Time) from KAUO Reporting Station
Clear Clear  
Wind Chill: 29°   Ceiling: Unl
Heat Index: 37°   Visibility: 10mi
Dew Point: 21°   Wind: 14mph
Humidity: 52%   Direction: 310°NW
Pressure: 30.09"   Gusts: 18mph
Location:  32.2227°N, 85.6394°W
Report Text: KAUO 010635Z AUTO 31012G16KT 10SM CLR 03/M06 A3009 RMK AO1
Loading
Personal Weather Stations






























Interactive Weather Map
Tropical Storm Tracking
New forecast layout! Learn more

10-Day Weather Forecast

Advertisements
Track Severe Weather on mobile